Galva, Kansas
Current Conditions -  °F | °C
As of 2:35 PM on Monday 22 Dec 2014 (Local Time) from KEWK Reporting Station
Broken Clouds Broken Clouds  
Wind Chill: 42°   Ceiling: 3500
Heat Index: 48°   Visibility: 10mi
Dew Point: 36°   Wind: 18mph
Humidity: 62%   Direction: 310°NW
Pressure: 29.53"   Gusts: 24mph
Location:  38.38°N, 97.54°W
Report Text: KEWK 222035Z AUTO 31016G21KT 10SM FEW027 BKN035 BKN043 09/02 A2953 RMK AO1
Loading
Personal Weather Stations






























Interactive Weather Map New forecast layout! Learn more

10-Day Weather Forecast

Advertisements
Track Severe Weather on mobile